W0ZMA Weather Reports


Display with metric or nautical units.
time (UTC)temp
F
wind
direction
speed
MPH
gust
MPH
rain 1hr
in
rain 24hr
in
rain mn
in
humidity
%
barometer
mb
20240530041550 58 113 0.0 0.0 0.00 0.00 0.00 85 1019.5
20240530040050 59 113 0.0 0.0 0.00 0.00 0.00 84 1019.3
20240530034551 59 113 0.0 0.0 0.00 0.00 0.00 83 1019.4
20240530033047 60 113 0.0 0.0 0.00 0.00 0.00 81 1019.2
20240530031546 60 113 0.0 0.0 0.00 0.00 0.00 80 1019.1
20240530030046 61 113 0.0 0.0 0.00 0.00 0.00 81 1019.1
20240530024547 61 113 0.0 0.0 0.00 0.00 0.00 79 1019.0
20240530023045 62 113 0.0 0.0 0.00 0.00 0.00 78 1019.0
20240530021608 62 113 0.0 0.0 0.00 0.00 0.00 77 1018.8
20240530020044 63 113 0.0 0.0 0.00 0.00 0.00 78 1018.7
20240530014545 64 113 0.0 0.0 0.00 0.00 0.00 78 1018.6
20240530013107 65 113 0.0 0.0 0.00 0.00 0.00 76 1018.5
20240530011554 66 113 0.0 0.0 0.00 0.00 0.00 74 1018.5
20240530010042 67 113 0.0 1.0 0.00 0.00 0.00 72 1018.4
20240530004541 68 141 0.0 0.0 0.00 0.00 0.00 68 1018.4
20240530003047 70 49 0.0 0.0 0.00 0.00 0.00 67 1018.3
20240530001539 71 49 0.0 0.0 0.00 0.00 0.00 64 1018.3
20240530000043 72 49 0.0 1.0 0.00 0.00 0.00 61 1018.3
20240529234606 73 49 0.0 0.0 0.00 0.00 0.00 62 1018.1
20240529233043 74 286 0.0 2.0 0.00 0.00 0.00 61 1018.1
20240529231539 74 55 0.0 1.0 0.00 0.00 0.00 55 1018.1
20240529230037 75 306 0.0 2.0 0.00 0.00 0.00 55 1018.1
20240529224535 76 275 0.0 0.0 0.00 0.00 0.00 56 1018.1
20240529223038 78 276 0.0 1.0 0.00 0.00 0.00 55 1018.2
20240529221540 79 276 0.0 2.0 0.00 0.00 0.00 50 1018.2
20240529220033 79 275 1.0 6.0 0.00 0.00 0.00 43 1018.1
20240529214535 79 186 0.0 1.0 0.00 0.00 0.00 48 1018.2
20240529213031 79 250 0.0 3.0 0.00 0.00 0.00 49 1018.2
20240529211535 80 263 2.0 10.0 0.00 0.00 0.00 46 1018.2
20240529210050 80 261 0.0 4.0 0.00 0.00 0.00 48 1018.3
20240529204532 80 259 1.0 8.0 0.00 0.00 0.00 49 1018.5
20240529203026 79 223 0.0 8.0 0.00 0.00 0.00 52 1018.5
20240529201527 79 271 0.0 7.0 0.00 0.00 0.00 55 1018.6
20240529200037 79 217 0.0 6.0 0.00 0.00 0.00 51 1018.6
20240529194528 79 292 0.0 7.0 0.00 0.00 0.00 53 1018.8
20240529193028 78 273 0.0 7.0 0.00 0.00 0.00 56 1018.9
20240529191520 78 255 0.0 1.0 0.00 0.00 0.00 54 1019.0
20240529190018 77 263 0.0 0.0 0.00 0.00 0.00 55 1019.1
20240529184518 78 288 0.0 4.0 0.00 0.00 0.00 51 1019.2
20240529183020 77 313 0.0 1.0 0.00 0.00 0.00 54 1019.4
20240529181516 77 315 1.0 6.0 0.00 0.00 0.00 56 1019.4
20240529180020 77 198 0.0 1.0 0.00 0.00 0.00 54 1019.6
20240529174514 77 198 0.0 2.0 0.00 0.00 0.00 52 1019.6
20240529173012 77 198 0.0 4.0 0.00 0.00 0.00 54 1019.8
20240529171514 76 311 0.0 2.0 0.00 0.00 0.00 59 1019.9
20240529170010 76 300 0.0 2.0 0.00 0.00 0.00 58 1020.2
20240529164508 76 353 0.0 2.0 0.00 0.00 0.00 56 1020.4
20240529163004 75 270 0.0 4.0 0.00 0.00 0.00 53 1020.6
20240529161502 75 118 0.0 4.0 0.00 0.00 0.00 60 1020.8
20240529160105 74 312 0.0 3.0 0.00 0.00 0.00 61 1020.9
20240529154600 74 311 0.0 3.0 0.00 0.00 0.00 62 1020.9
20240529153053 73 311 0.0 2.0 0.00 0.00 0.00 64 1020.8
20240529151552 73 313 0.0 1.0 0.00 0.00 0.00 66 1020.7
20240529150044 72 313 0.0 2.0 0.00 0.00 0.00 64 1020.6
20240529144539 71 318 0.0 3.0 0.00 0.00 0.00 70 1020.6
20240529143037 70 318 0.0 2.0 0.00 0.00 0.00 76 1020.4
20240529141530 68 320 0.0 1.0 0.00 0.00 0.00 82 1020.3
20240529140029 66 320 0.0 3.0 0.00 0.00 0.00 83 1020.3
20240529134521 62 328 0.0 2.0 0.00 0.00 0.00 94 1020.1
20240529133023 62 348 0.0 1.0 0.00 0.00 0.00 99 1020.1
20240529131517 61 348 0.0 0.0 0.00 0.00 0.00 100 1019.8
20240529130013 60 348 0.0 0.0 0.00 0.00 0.00 99 1019.8
20240529124510 59 348 0.0 0.0 0.00 0.00 0.00 99 1019.5
20240529123006 58 348 0.0 0.0 0.00 0.00 0.00 99 1019.2
20240529121505 57 348 0.0 0.0 0.00 0.00 0.00 99 1019.4
20240529120003 56 348 0.0 0.0 0.00 0.00 0.00 99 1019.2
20240529114600 55 348 0.0 0.0 0.00 0.00 0.00 98 1018.9
20240529113059 55 348 0.0 0.0 0.00 0.00 0.00 98 1018.9
20240529111558 55 348 0.0 1.0 0.00 0.00 0.00 98 1018.7
20240529110058 55 51 0.0 0.0 0.00 0.00 0.00 98 1018.4
20240529104554 56 51 0.0 0.0 0.00 0.00 0.00 98 1018.3
20240529103051 55 289 0.0 0.0 0.00 0.00 0.00 98 1018.3
20240529101557 54 289 0.0 0.0 0.00 0.00 0.00 98 1018.1
20240529100050 54 289 0.0 0.0 0.00 0.00 0.00 98 1017.7
20240529094551 54 289 0.0 0.0 0.00 0.00 0.00 97 1017.6
20240529093044 54 289 0.0 0.0 0.00 0.00 0.00 97 1017.4
20240529091543 54 289 0.0 0.0 0.00 0.00 0.00 97 1017.5
20240529090049 54 289 0.0 0.0 0.00 0.00 0.00 97 1017.6
20240529084541 55 289 0.0 0.0 0.00 0.00 0.00 97 1017.3
20240529083044 55 289 0.0 0.0 0.00 0.00 0.00 97 1017.2
20240529081541 55 289 0.0 0.0 0.00 0.00 0.00 97 1016.6
20240529080043 55 289 0.0 0.0 0.00 0.00 0.00 97 1016.9
20240529074548 55 289 0.0 0.0 0.00 0.00 0.00 97 1016.3
20240529073045 55 289 0.0 0.0 0.00 0.00 0.00 97 1016.6
20240529071533 56 289 0.0 0.0 0.00 0.00 0.00 96 1016.9
20240529070034 56 289 0.0 0.0 0.00 0.00 0.00 97 1017.1
20240529064538 56 289 0.0 0.0 0.00 0.00 0.00 96 1016.9
20240529063030 56 289 0.0 0.0 0.00 0.00 0.00 96 1016.9
20240529061527 56 289 0.0 0.0 0.00 0.00 0.00 96 1017.2
20240529060026 57 289 0.0 0.0 0.00 0.00 0.00 95 1016.9
20240529054526 57 289 0.0 0.0 0.00 0.00 0.00 95 1016.8
20240529053022 57 289 0.0 0.0 0.00 0.00 0.00 95 1016.9
20240529051521 58 289 0.0 0.0 0.00 0.00 0.00 95 1016.9
20240529050021 58 289 0.0 0.0 0.00 0.00 0.00 95 1016.7
20240529044517 58 289 0.0 0.0 0.00 0.00 0.00 94 1016.6
20240529043014 59 289 0.0 0.0 0.00 0.00 0.00 94 1016.4